Pagina principale
METAR-TAF:

METAR-TAF

Aeroporti :

Aeroporto militare Mario de Bernardi

Pratica Di Mare, Italia

latitudine: 41-39N, longitudine: 012-27E, altezza: 6 m

Osservazione

Il bollettino è stato emesso 47 minuti fa, alle 23:55 UTC
Vento 4 kt da est
Temperature 20°C
Umidità 88%
Pressione 1014 hPa
Visibilità 10 km o più
nessuna nube inferiore a 1500 m e nessun cumulonembo

METAR: LIRE 142355Z 09004KT CAVOK 20/18 Q1014 RMK SKC VIS MIN 9999 WIND THR13 07002KT WIND THR31 /////KT BLU

Ora: 02:42 (00:42 UTC)

Previsione

Il bollettino è stato emesso 1 ora e 42 minuti fa, alle 23:00 UTC
Previsione valida dal 15 alle 00 UTC al 15 alle 09 UTC
Vento 4 kt da est/sud-est
Visibilità 10 km o più
nessuna nube inferiore a 1500 m e nessun cumulonembo

TAF: LIRE 142300Z 1500/1509 11004KT CAVOK

Osservazioni e previsioni meteorologiche di più di 4000 aeroporti (messaggi METAR e TAF).

Le stazioni disponibili sono rappresentate dai dischi gialli e rossi sulla carta.

Puntare il mouse per vedere il nome della stazione.

Clicca sopra per visualizzare le osservazioni e previsioni meteorologiche.

Per cambiare la mappa : fare clic sui pulsanti verdi con una croce nera per ingrandire, il pulsante verde con un trattino per diminuire, o sulla freccia verde per le mappe adiacenti.


METAR-TAF: